Time;durP1;ratioP1;P1;durP2;ratioP2;P2;SDS_P1;SDS_P2;PMS_P1;PMS_P2;Temp;Humidity;BMP_temperature;BMP_pressure;BME280_temperature;BME280_humidity;BME280_pressure;Samples;Min_cycle;Max_cycle;Signal;HPM_P1;HPM_P2
2022/04/23 00:02:15;;;;;;;14.95;9.48;;;;;;;10.71;81.49;96510.91;1705727;84;21078;-86
2022/04/23 00:04:41;;;;;;;16.12;9.15;;;;;;;10.71;81.84;96495.49;1705651;84;21047;-85
2022/04/23 00:07:08;;;;;;;11.33;8.78;;;;;;;10.73;82.29;96493.14;1705597;84;21476;-85
2022/04/23 00:09:35;;;;;;;14.80;8.60;;;;;;;10.75;83.00;96485.12;1705748;84;21038;-85
2022/04/23 00:12:02;;;;;;;15.35;9.18;;;;;;;10.78;82.78;96472.55;1705632;84;21087;-85
2022/04/23 00:14:29;;;;;;;13.85;9.13;;;;;;;10.79;83.39;96470.73;1705588;84;21039;-85
2022/04/23 00:16:57;;;;;;;14.23;8.90;;;;;;;10.86;83.93;96477.88;1705471;84;21035;-85
2022/04/23 00:19:24;;;;;;;15.85;9.50;;;;;;;10.91;83.61;96488.63;1705701;84;20996;-85
2022/04/23 00:21:51;;;;;;;16.27;10.65;;;;;;;10.96;83.50;96477.30;1705503;84;21030;-85
2022/04/23 00:24:18;;;;;;;14.93;9.60;;;;;;;10.97;83.11;96482.14;1699804;84;20995;-85
2022/04/23 00:26:45;;;;;;;15.65;9.48;;;;;;;10.96;83.38;96484.38;1705617;84;21066;-85
2022/04/23 00:29:12;;;;;;;15.18;9.00;;;;;;;11.00;83.88;96480.63;1705571;84;21023;-85
2022/04/23 00:31:38;;;;;;;14.90;9.98;;;;;;;11.04;84.07;96486.63;1705718;84;21476;-85
2022/04/23 00:34:05;;;;;;;20.92;11.18;;;;;;;11.07;84.02;96480.68;1705458;84;21053;-84
2022/04/23 00:36:34;;;;;;;17.17;10.35;;;;;;;11.08;83.29;96491.66;1698789;84;21434;-85
2022/04/23 00:39:01;;;;;;;15.75;10.78;;;;;;;11.07;83.36;96485.98;1705681;84;21497;-84
2022/04/23 00:44:16;;;;;;;15.30;9.90;;;;;;;11.05;83.50;96481.70;1707965;82;21018;-84
2022/04/23 00:46:44;;;;;;;17.23;11.10;;;;;;;10.99;83.58;96486.00;1718184;83;21003;-84
2022/04/23 00:49:13;;;;;;;21.12;12.40;;;;;;;10.99;83.80;96486.87;1690919;85;21025;-83
2022/04/23 00:51:41;;;;;;;16.00;11.48;;;;;;;10.98;83.32;96493.13;1699124;84;21120;-84
2022/04/23 00:54:10;;;;;;;20.48;12.25;;;;;;;10.93;83.31;96496.01;1699477;83;21039;-83
2022/04/23 00:56:39;;;;;;;19.92;11.10;;;;;;;10.86;83.60;96494.65;1699458;84;21126;-83
2022/04/23 00:59:09;;;;;;;21.35;12.30;;;;;;;10.79;84.32;96498.56;1720533;82;21014;-84
2022/04/23 01:01:36;;;;;;;19.67;11.60;;;;;;;10.77;83.89;96495.16;1719919;83;21069;-83
2022/04/23 01:04:06;;;;;;;20.32;12.07;;;;;;;10.74;83.63;96492.20;1720263;83;22015;-83
2022/04/23 01:06:34;;;;;;;21.82;12.55;;;;;;;10.69;84.65;96494.25;1720525;83;21488;-84
2022/04/23 01:09:07;;;;;;;18.35;12.30;;;;;;;10.68;84.39;96497.35;1699756;84;21027;-83
2022/04/23 01:11:36;;;;;;;20.82;13.30;;;;;;;10.64;84.16;96496.29;1699890;83;21020;-83
2022/04/23 01:14:03;;;;;;;17.67;11.97;;;;;;;10.63;84.34;96498.56;1699743;84;21090;-83
2022/04/23 01:16:30;;;;;;;17.17;12.23;;;;;;;10.61;84.07;96493.80;1720410;83;21016;-83
2022/04/23 01:18:57;;;;;;;25.50;14.05;;;;;;;10.57;84.09;96486.49;1720481;83;21015;-83
2022/04/23 01:21:24;;;;;;;24.00;14.03;;;;;;;10.56;84.42;96486.11;1720473;83;21080;-83
2022/04/23 01:23:53;;;;;;;20.08;13.55;;;;;;;10.52;84.27;96476.16;1720374;83;21102;-83
2022/04/23 01:26:30;;;;;;;26.07;14.03;;;;;;;10.53;85.00;96475.21;1720117;83;21051;-83
2022/04/23 01:28:59;;;;;;;25.17;14.47;;;;;;;10.50;84.87;96474.05;1720213;83;21010;-83
2022/04/23 01:31:27;;;;;;;22.40;14.15;;;;;;;10.49;84.64;96467.50;1720182;83;21106;-82
2022/04/23 01:33:55;;;;;;;24.85;15.70;;;;;;;10.48;85.55;96463.14;1720242;83;21023;-83
2022/04/23 01:36:22;;;;;;;20.10;15.18;;;;;;;10.46;85.06;96461.06;1720230;83;21020;-83
2022/04/23 01:38:49;;;;;;;25.05;15.40;;;;;;;10.41;85.93;96452.86;1720344;83;21393;-84
2022/04/23 01:41:15;;;;;;;26.25;15.48;;;;;;;10.37;88.34;96451.31;1720399;83;21035;-84
2022/04/23 01:43:42;;;;;;;23.52;15.50;;;;;;;10.34;86.47;96458.56;1699798;84;21008;-84
2022/04/23 01:46:09;;;;;;;25.02;15.88;;;;;;;10.32;86.49;96457.77;1720242;82;21015;-84
2022/04/23 01:48:36;;;;;;;22.90;15.75;;;;;;;10.29;86.44;96454.37;1720568;83;21067;-84
2022/04/23 01:51:03;;;;;;;24.47;15.30;;;;;;;10.29;86.32;96450.40;1720419;83;21406;-84
2022/04/23 01:53:29;;;;;;;25.00;16.93;;;;;;;10.33;86.32;96455.05;1720611;83;21015;-84
2022/04/23 01:55:56;;;;;;;22.77;15.98;;;;;;;10.37;86.15;96459.70;1720544;83;20996;-84
2022/04/23 01:58:23;;;;;;;21.87;15.40;;;;;;;10.39;86.04;96460.50;1720583;83;21004;-84
2022/04/23 02:00:51;;;;;;;22.95;15.38;;;;;;;10.41;86.20;96463.91;1720850;83;21011;-85
2022/04/23 02:03:18;;;;;;;19.77;13.95;;;;;;;10.44;86.39;96459.81;1720898;83;21007;-85
2022/04/23 02:05:44;;;;;;;21.17;15.38;;;;;;;10.51;86.52;96459.02;1721933;83;21015;-84
2022/04/23 02:08:16;;;;;;;18.92;13.93;;;;;;;10.55;87.08;96463.22;1722699;83;21052;-84
2022/04/23 02:10:43;;;;;;;20.55;14.95;;;;;;;10.59;86.36;96455.95;1721146;83;21391;-85
2022/04/23 02:13:11;;;;;;;20.80;13.95;;;;;;;10.62;86.47;96460.60;1723102;81;21059;-84
2022/04/23 02:15:40;;;;;;;22.45;14.43;;;;;;;10.63;86.68;96457.01;1723613;81;21035;-84
2022/04/23 02:18:08;;;;;;;21.68;13.80;;;;;;;10.62;86.75;96462.38;1723398;83;20984;-84
2022/04/23 02:20:35;;;;;;;18.40;13.08;;;;;;;10.62;87.29;96461.06;1720555;83;21607;-84
2022/04/23 02:23:02;;;;;;;22.05;13.43;;;;;;;10.65;87.46;96465.75;1699971;84;21040;-84
2022/04/23 02:25:29;;;;;;;21.75;14.18;;;;;;;10.74;87.85;96462.19;1720615;83;20979;-84
2022/04/23 02:27:56;;;;;;;19.35;13.13;;;;;;;10.80;87.56;96472.47;1720439;83;21042;-84
2022/04/23 02:30:22;;;;;;;20.85;13.18;;;;;;;10.78;87.04;96473.88;1720678;83;20982;-84
2022/04/23 02:32:50;;;;;;;20.75;12.98;;;;;;;10.80;87.52;96478.61;1720495;83;21015;-84
2022/04/23 02:35:19;;;;;;;19.42;11.85;;;;;;;10.86;87.53;96488.48;1720367;83;21047;-84
2022/04/23 02:37:48;;;;;;;17.80;12.95;;;;;;;10.86;87.12;96487.16;1720598;83;21031;-85
2022/04/23 02:40:16;;;;;;;17.80;12.80;;;;;;;10.83;86.89;96482.88;1720915;83;20952;-84
2022/04/23 02:42:44;;;;;;;20.97;13.48;;;;;;;10.81;87.24;96482.13;1720481;83;21438;-84
2022/04/23 02:45:14;;;;;;;21.25;12.78;;;;;;;10.86;88.29;96492.45;1720668;82;21074;-83
2022/04/23 02:47:52;;;;;;;17.30;12.13;;;;;;;10.86;87.43;96488.02;1720632;83;21481;-83
2022/04/23 02:50:36;;;;;;;16.23;11.53;;;;;;;10.82;87.11;96484.70;1720611;83;21017;-83
2022/04/23 02:53:03;;;;;;;15.10;10.80;;;;;;;10.74;87.07;96480.73;1720493;83;21497;-83
2022/04/23 02:55:33;;;;;;;19.48;11.53;;;;;;;10.68;87.11;96481.45;1720586;83;20999;-83
2022/04/23 02:58:09;;;;;;;16.23;11.48;;;;;;;10.65;87.18;96478.13;1720573;83;21004;-83
2022/04/23 03:00:42;;;;;;;16.20;11.40;;;;;;;10.61;87.49;96481.42;1720606;83;21023;-83
2022/04/23 03:03:10;;;;;;;15.13;10.35;;;;;;;10.58;86.99;96476.27;1720478;83;21422;-83
2022/04/23 03:05:41;;;;;;;11.28;8.83;;;;;;;10.56;87.34;96478.16;1720630;83;21441;-82
2022/04/23 03:08:07;;;;;;;15.05;9.00;;;;;;;10.54;87.38;96475.59;1720342;83;21035;-82
2022/04/23 03:10:36;;;;;;;10.95;8.23;;;;;;;10.50;86.83;96483.31;1720212;83;21592;-83
2022/04/23 03:13:02;;;;;;;18.50;11.33;;;;;;;10.47;87.16;96481.30;1720374;83;21019;-83
2022/04/23 03:15:31;;;;;;;38.75;23.40;;;;;;;10.42;86.59;96476.20;1720376;83;21041;-83
2022/04/23 03:18:13;;;;;;;20.52;10.55;;;;;;;10.36;86.82;96481.38;1720017;83;21409;-83
2022/04/23 03:20:42;;;;;;;10.93;7.37;;;;;;;10.30;86.84;96475.93;1719742;83;21459;-84
2022/04/23 03:23:09;;;;;;;10.28;6.70;;;;;;;10.27;87.41;96478.77;1720330;83;21544;-83
2022/04/23 03:25:36;;;;;;;11.38;6.60;;;;;;;10.25;87.24;96474.00;1720531;83;21070;-83
2022/04/23 03:28:03;;;;;;;11.33;7.50;;;;;;;10.22;87.13;96474.64;1720393;83;21011;-83
2022/04/23 03:30:30;;;;;;;15.03;7.62;;;;;;;10.20;86.98;96475.16;1720445;83;21030;-83
2022/04/23 03:32:59;;;;;;;13.25;8.53;;;;;;;10.17;87.03;96472.21;1720392;83;21020;-84
2022/04/23 03:35:27;;;;;;;16.00;8.65;;;;;;;10.15;87.02;96472.77;1720440;83;20984;-84
2022/04/23 03:37:55;;;;;;;14.43;8.55;;;;;;;10.13;87.55;96475.98;1720511;83;20991;-84
2022/04/23 03:40:22;;;;;;;14.25;8.18;;;;;;;10.12;88.62;96476.44;1720507;83;21020;-84
2022/04/23 03:42:49;;;;;;;11.70;8.58;;;;;;;10.12;88.64;96478.22;1720191;83;21496;-84
2022/04/23 03:45:18;;;;;;;15.03;8.80;;;;;;;10.08;88.26;96481.50;1724012;82;20999;-83
2022/04/23 03:47:48;;;;;;;14.03;8.85;;;;;;;10.05;89.65;96482.97;1704034;84;21017;-83
2022/04/23 03:50:16;;;;;;;17.55;9.35;;;;;;;10.01;88.97;96483.61;1734560;83;20931;-84
2022/04/23 03:52:44;;;;;;;16.25;8.95;;;;;;;10.01;88.48;96485.41;1703593;84;21538;-84
2022/04/23 03:55:11;;;;;;;14.03;8.85;;;;;;;10.02;88.47;96486.63;1734633;83;21032;-84
2022/04/23 03:57:47;;;;;;;13.85;9.35;;;;;;;10.03;88.19;96487.50;1703952;84;20973;-84
2022/04/23 04:00:16;;;;;;;15.68;9.40;;;;;;;10.06;88.19;96483.84;1734760;83;20970;-84
2022/04/23 04:02:44;;;;;;;14.85;9.80;;;;;;;10.09;87.82;96481.05;1703903;84;21060;-84
2022/04/23 04:05:12;;;;;;;15.55;8.80;;;;;;;10.09;87.83;96476.59;1734603;83;21474;-83
2022/04/23 04:07:47;;;;;;;14.23;8.93;;;;;;;10.14;88.11;96480.34;1703968;84;21006;-84
2022/04/23 04:10:20;;;;;;;13.80;8.78;;;;;;;10.16;88.15;96481.97;1734671;83;21391;-84
2022/04/23 04:12:48;;;;;;;15.03;8.93;;;;;;;10.21;88.10;96483.03;1698535;84;21078;-84
2022/04/23 04:15:16;;;;;;;12.07;9.30;;;;;;;10.26;88.73;96481.48;1713502;84;21016;-84
2022/04/23 04:17:51;;;;;;;14.10;9.20;;;;;;;10.32;88.37;96482.48;1734547;83;21044;-85
2022/04/23 04:20:21;;;;;;;12.75;9.25;;;;;;;10.37;88.56;96482.22;1703817;84;20966;-84
2022/04/23 04:22:47;;;;;;;13.28;7.80;;;;;;;10.41;88.91;96486.42;1734630;83;21000;-84
2022/04/23 04:25:14;;;;;;;12.30;7.40;;;;;;;10.48;90.40;96481.23;1703919;84;21384;-85
2022/04/23 04:27:42;;;;;;;11.25;6.53;;;;;;;10.54;89.91;96487.97;1734630;83;21475;-85
2022/04/23 04:30:11;;;;;;;14.43;6.80;;;;;;;10.58;89.29;96486.87;1704078;84;20977;-84
2022/04/23 04:32:41;;;;;;;8.60;6.20;;;;;;;10.60;88.69;96486.34;1734470;83;20994;-84
2022/04/23 04:35:09;;;;;;;9.08;6.72;;;;;;;10.64;89.84;96488.34;1703988;84;21029;-84
2022/04/23 04:37:36;;;;;;;12.25;7.50;;;;;;;10.74;89.48;96481.60;1733523;83;21081;-84
2022/04/23 04:40:05;;;;;;;9.55;7.03;;;;;;;10.85;89.71;96491.62;1702879;84;21008;-84
2022/04/23 04:42:31;;;;;;;10.38;6.60;;;;;;;10.93;89.17;96493.36;1733601;83;21033;-84
2022/04/23 04:44:58;;;;;;;12.00;6.50;;;;;;;10.91;89.29;96495.25;1703247;84;20973;-84
2022/04/23 04:47:29;;;;;;;11.43;6.33;;;;;;;10.88;89.03;96491.92;1733390;83;21021;-84
2022/04/23 04:50:00;;;;;;;9.53;6.45;;;;;;;10.88;88.84;96493.25;1702803;84;21029;-84
2022/04/23 04:52:27;;;;;;;14.03;7.70;;;;;;;10.82;89.33;96494.42;1733477;83;21042;-84
2022/04/23 04:54:53;;;;;;;9.43;5.92;;;;;;;10.77;89.41;96501.31;1703244;84;20989;-84
2022/04/23 04:57:20;;;;;;;9.33;6.10;;;;;;;10.75;88.62;96497.05;1733320;83;21037;-84
2022/04/23 04:59:46;;;;;;;9.00;5.47;;;;;;;10.78;88.70;96493.75;1702035;84;21531;-84
2022/04/23 05:02:13;;;;;;;9.90;5.92;;;;;;;10.80;88.68;96499.80;1733136;83;21080;-84
2022/04/23 05:04:40;;;;;;;6.95;5.33;;;;;;;10.77;88.69;96499.12;1702090;84;21490;-84
2022/04/23 05:07:06;;;;;;;11.85;6.62;;;;;;;10.76;88.42;96501.40;1732534;83;20993;-85
2022/04/23 05:09:33;;;;;;;13.40;7.42;;;;;;;10.76;88.28;96502.72;1701889;84;20997;-84
2022/04/23 05:11:59;;;;;;;13.38;7.78;;;;;;;10.76;88.00;96507.53;1732740;83;21033;-84
2022/04/23 05:14:26;;;;;;;11.20;8.00;;;;;;;10.77;87.79;96505.75;1701806;84;20993;-84
2022/04/23 05:16:53;;;;;;;11.45;8.10;;;;;;;10.78;87.65;96507.45;1732790;83;20966;-84
2022/04/23 05:19:19;;;;;;;15.53;8.95;;;;;;;10.78;87.81;96506.12;1703135;84;21017;-84
2022/04/23 05:21:46;;;;;;;10.38;7.72;;;;;;;10.80;87.70;96506.92;1734184;83;21025;-84
2022/04/23 05:24:13;;;;;;;10.28;8.13;;;;;;;10.82;87.84;96511.66;1703719;84;21374;-84
2022/04/23 05:26:39;;;;;;;11.33;6.45;;;;;;;10.83;87.96;96510.25;1734558;83;21018;-84
2022/04/23 05:29:06;;;;;;;12.98;5.97;;;;;;;10.84;87.87;96507.14;1703752;84;20992;-84
2022/04/23 05:31:32;;;;;;;11.93;6.20;;;;;;;10.85;87.62;96512.83;1734640;83;21018;-85
2022/04/23 05:33:59;;;;;;;9.83;6.53;;;;;;;10.89;87.80;96516.16;1703586;84;21013;-84
2022/04/23 05:36:29;;;;;;;8.28;6.72;;;;;;;10.90;87.46;96514.75;1734324;83;21057;-85
2022/04/23 05:38:56;;;;;;;9.68;6.20;;;;;;;10.87;88.43;96518.88;1703870;84;20993;-85
2022/04/23 05:41:23;;;;;;;11.60;7.75;;;;;;;10.85;87.64;96515.47;1734142;83;21415;-84
2022/04/23 05:43:50;;;;;;;10.20;6.70;;;;;;;10.84;87.70;96525.70;1703613;84;20996;-84
2022/04/23 05:46:17;;;;;;;8.43;6.37;;;;;;;10.91;87.55;96528.38;1734556;82;21306;-83
2022/04/23 05:48:44;;;;;;;9.65;6.78;;;;;;;10.96;87.52;96523.68;1703558;84;21026;-84
2022/04/23 05:51:11;;;;;;;9.98;6.40;;;;;;;11.03;87.56;96522.02;1734365;83;21029;-84
2022/04/23 05:53:38;;;;;;;8.70;5.42;;;;;;;11.10;87.54;96526.05;1703394;84;21025;-84
2022/04/23 05:56:05;;;;;;;10.13;7.15;;;;;;;11.13;86.92;96528.52;1734029;83;20998;-84
2022/04/23 05:58:35;;;;;;;8.60;5.30;;;;;;;11.21;87.33;96536.03;1702896;84;20993;-84
2022/04/23 06:01:03;;;;;;;6.55;5.40;;;;;;;11.25;87.37;96540.72;1734342;83;21018;-85
2022/04/23 06:03:31;;;;;;;8.45;5.90;;;;;;;11.29;87.34;96541.78;1703558;84;21458;-85
2022/04/23 06:05:59;;;;;;;7.05;5.53;;;;;;;11.34;87.50;96538.88;1734181;83;20994;-84
2022/04/23 06:08:26;;;;;;;7.92;5.28;;;;;;;11.37;87.26;96545.81;1703873;84;21423;-85
2022/04/23 06:10:52;;;;;;;7.55;4.40;;;;;;;11.46;87.66;96538.66;1734537;83;21046;-84
2022/04/23 06:13:19;;;;;;;8.48;5.58;;;;;;;11.52;87.60;96540.96;1703012;84;20981;-84
2022/04/23 06:15:45;;;;;;;7.10;4.30;;;;;;;11.58;87.39;96549.02;1734580;83;21492;-84
2022/04/23 06:18:12;;;;;;;6.08;4.60;;;;;;;11.63;87.08;96550.97;1703233;84;21005;-85
2022/04/23 06:20:39;;;;;;;7.45;3.95;;;;;;;11.72;86.88;96543.78;1734060;83;21025;-85
2022/04/23 06:23:06;;;;;;;6.97;4.20;;;;;;;11.82;86.79;96552.08;1703442;84;21032;-85
2022/04/23 06:25:32;;;;;;;9.13;5.15;;;;;;;11.93;86.40;96552.80;1733211;83;21021;-85
2022/04/23 06:28:01;;;;;;;9.63;5.33;;;;;;;11.90;85.45;96556.94;1703138;84;21072;-84
2022/04/23 06:30:28;;;;;;;9.58;5.33;;;;;;;11.90;85.42;96551.63;1734444;83;20950;-84
2022/04/23 06:32:54;;;;;;;5.03;3.62;;;;;;;11.97;85.68;96558.77;1703814;84;21407;-84
2022/04/23 06:35:21;;;;;;;6.47;4.75;;;;;;;12.04;84.67;96549.98;1734599;83;21057;-84
2022/04/23 06:37:48;;;;;;;6.83;4.37;;;;;;;12.11;84.85;96560.64;1703605;84;21427;-84
2022/04/23 06:40:14;;;;;;;6.03;4.50;;;;;;;12.22;84.86;96557.35;1734544;83;21033;-85
2022/04/23 06:42:42;;;;;;;7.17;4.08;;;;;;;12.28;84.31;96564.48;1703767;84;20998;-84
2022/04/23 06:45:11;;;;;;;6.95;3.72;;;;;;;12.39;84.50;96566.97;1734374;83;21025;-84
2022/04/23 06:47:38;;;;;;;4.67;2.37;;;;;;;12.45;83.97;96575.06;1697348;84;21053;-83
2022/04/23 06:50:06;;;;;;;5.35;3.20;;;;;;;12.44;82.35;96572.00;1709107;84;21024;-84
2022/04/23 06:52:34;;;;;;;5.47;2.37;;;;;;;12.46;82.80;96568.79;1727854;83;20996;-85
2022/04/23 06:55:00;;;;;;;4.00;2.30;;;;;;;12.46;82.89;96580.25;1727017;83;21089;-84
2022/04/23 06:57:27;;;;;;;14.43;5.90;;;;;;;12.48;82.43;96578.37;1709419;84;21059;-84
2022/04/23 06:59:54;;;;;;;14.95;8.93;;;;;;;12.46;81.92;96583.41;1710042;84;21027;-84
2022/04/23 07:02:21;;;;;;;3.65;2.50;;;;;;;12.41;81.95;96591.17;1709742;84;21444;-84
2022/04/23 07:04:48;;;;;;;4.78;1.92;;;;;;;12.37;81.13;96591.46;1710251;84;20999;-85
2022/04/23 07:07:15;;;;;;;4.55;1.42;;;;;;;12.33;81.28;96593.42;1709495;84;21090;-83
2022/04/23 07:09:42;;;;;;;3.85;1.85;;;;;;;12.31;80.42;96593.13;1709844;83;21047;-83
2022/04/23 07:12:10;;;;;;;2.55;1.40;;;;;;;12.31;80.53;96593.13;1710043;83;21075;-83
2022/04/23 07:14:38;;;;;;;5.78;2.35;;;;;;;12.34;80.96;96592.47;1709951;84;21039;-83
2022/04/23 07:17:05;;;;;;;5.53;1.90;;;;;;;12.38;81.25;96591.34;1709944;84;21028;-83
2022/04/23 07:19:32;;;;;;;3.33;1.77;;;;;;;12.42;81.07;96596.02;1710046;83;21054;-83
2022/04/23 07:21:59;;;;;;;5.12;1.67;;;;;;;12.49;80.52;96592.50;1710067;83;21487;-84
2022/04/23 07:24:26;;;;;;;4.35;1.67;;;;;;;12.54;80.24;96597.93;1728143;83;20991;-82
2022/04/23 07:26:53;;;;;;;4.17;1.42;;;;;;;12.57;80.11;96599.55;1727905;83;20983;-84
2022/04/23 07:29:19;;;;;;;3.83;2.20;;;;;;;12.63;79.70;96602.32;1710022;84;21000;-84
2022/04/23 07:31:46;;;;;;;4.20;2.05;;;;;;;12.71;79.95;96599.19;1710090;83;21059;-85
2022/04/23 07:39:44;;;;;;;5.85;1.50;;;;;;;12.87;78.26;96609.27;1699829;84;21485;-86
2022/04/23 07:42:12;;;;;;;4.92;1.50;;;;;;;12.96;77.74;96605.20;1710034;84;21099;-86
2022/04/23 07:44:39;;;;;;;4.53;1.40;;;;;;;13.06;78.34;96612.13;1709992;83;21035;-85
2022/04/23 07:47:06;;;;;;;3.62;1.45;;;;;;;13.18;77.75;96615.36;1731213;82;21045;-85
2022/04/23 07:49:33;;;;;;;6.10;1.60;;;;;;;13.27;78.48;96615.72;1703779;84;20993;-85
2022/04/23 07:52:00;;;;;;;3.52;1.20;;;;;;;13.27;78.04;96615.25;1734874;83;21428;-85
2022/04/23 07:54:26;;;;;;;6.83;1.50;;;;;;;13.23;77.26;96617.72;1703768;84;21092;-85
2022/04/23 07:56:54;;;;;;;4.12;1.30;;;;;;;13.29;77.43;96617.33;1734556;83;20974;-86
2022/04/23 07:59:22;;;;;;;5.00;1.70;;;;;;;13.38;77.44;96615.91;1704027;84;21435;-85
2022/04/23 08:01:49;;;;;;;3.17;1.52;;;;;;;13.44;77.27;96619.97;1734631;83;20989;-85
2022/04/23 08:04:17;;;;;;;4.30;1.32;;;;;;;13.52;77.51;96622.17;1699018;84;21024;-85
2022/04/23 08:06:44;;;;;;;5.80;1.65;;;;;;;13.64;76.78;96616.08;1699575;84;21169;-85
2022/04/23 08:09:11;;;;;;;3.02;1.32;;;;;;;13.79;76.95;96614.22;1699503;84;21048;-84
2022/04/23 08:11:37;;;;;;;5.55;1.85;;;;;;;13.95;77.17;96619.91;1699417;84;21012;-85
2022/04/23 08:14:04;;;;;;;4.92;2.22;;;;;;;14.11;76.96;96617.06;1699418;84;20972;-85
2022/04/23 08:16:31;;;;;;;4.08;1.95;;;;;;;14.03;74.01;96625.55;1699656;84;21445;-84
2022/04/23 08:18:59;;;;;;;6.78;2.80;;;;;;;14.11;75.21;96628.58;1699507;84;21044;-85
2022/04/23 08:21:26;;;;;;;6.37;3.70;;;;;;;14.21;75.26;96627.98;1699508;84;21044;-84
2022/04/23 08:23:52;;;;;;;8.00;2.83;;;;;;;14.32;75.28;96636.59;1699508;84;21000;-85
2022/04/23 08:26:19;;;;;;;7.28;2.83;;;;;;;14.43;75.33;96635.85;1699543;84;21016;-85
2022/04/23 08:31:30;;;;;;;7.47;3.30;;;;;;;14.27;74.29;96631.55;1699491;84;21231;-84
2022/04/23 08:34:03;;;;;;;5.62;3.12;;;;;;;14.30;75.12;96630.03;1699536;84;21031;-84
2022/04/23 08:36:36;;;;;;;5.60;3.10;;;;;;;14.40;75.03;96638.25;1699441;84;21430;-84
2022/04/23 08:39:06;;;;;;;9.15;4.00;;;;;;;14.54;74.84;96637.80;1699234;84;21047;-85
2022/04/23 08:41:35;;;;;;;8.30;4.17;;;;;;;14.68;74.27;96639.05;1699458;84;21012;-85
2022/04/23 08:44:05;;;;;;;8.15;4.37;;;;;;;14.80;73.86;96637.39;1699469;84;21047;-84
2022/04/23 08:46:38;;;;;;;6.45;5.20;;;;;;;14.94;74.40;96632.93;1699391;84;21004;-84
2022/04/23 08:49:17;;;;;;;6.72;4.22;;;;;;;15.10;74.57;96631.36;1699764;84;21012;-85
2022/04/23 08:51:53;;;;;;;6.00;4.25;;;;;;;15.24;74.31;96627.23;1699889;84;21004;-85
2022/04/23 08:54:23;;;;;;;8.93;4.55;;;;;;;15.32;72.02;96633.36;1699872;84;21032;-85
2022/04/23 08:56:50;;;;;;;8.88;4.75;;;;;;;15.13;72.28;96625.34;1678263;84;20996;-85
2022/04/23 08:59:17;;;;;;;7.40;5.72;;;;;;;15.10;73.12;96629.55;1699158;84;21059;-85
2022/04/23 09:01:47;;;;;;;9.13;5.08;;;;;;;15.21;73.16;96632.81;1699997;84;20996;-85
2022/04/23 09:04:13;;;;;;;7.35;4.97;;;;;;;15.26;72.91;96633.80;1699935;84;21040;-85
2022/04/23 09:06:46;;;;;;;7.00;5.03;;;;;;;15.41;72.76;96631.87;1699549;84;21063;-85
2022/04/23 09:09:20;;;;;;;8.50;5.37;;;;;;;15.61;73.08;96634.44;1700409;84;21004;-86
2022/04/23 09:11:54;;;;;;;8.03;4.67;;;;;;;15.88;72.08;96635.22;1701534;84;21068;-84
2022/04/23 09:14:31;;;;;;;6.45;4.65;;;;;;;16.03;71.18;96638.63;1702892;83;21040;-85
2022/04/23 09:25:36;;;;;;;8.55;4.47;;;;;;;15.96;69.08;96640.42;1699409;84;20988;-85
2022/04/23 09:28:30;;;;;;;6.37;4.55;;;;;;;16.09;69.59;96638.16;1699310;84;21074;-85
2022/04/23 09:30:56;;;;;;;6.70;4.35;;;;;;;16.13;69.46;96631.63;1676757;84;21296;-85
2022/04/23 09:33:28;;;;;;;6.75;4.03;;;;;;;16.18;68.97;96633.47;1699607;84;21122;-85
2022/04/23 09:36:01;;;;;;;8.55;3.90;;;;;;;16.06;67.53;96629.89;1699415;84;21034;-86
2022/04/23 09:38:29;;;;;;;5.37;4.03;;;;;;;16.04;68.93;96627.83;1699545;84;21012;-85
2022/04/23 09:41:16;;;;;;;6.30;3.90;;;;;;;15.96;67.57;96629.73;1699594;84;21264;-85
2022/04/23 09:43:45;;;;;;;8.10;4.15;;;;;;;16.04;68.48;96625.63;1699151;84;20976;-84
2022/04/23 09:46:12;;;;;;;7.25;4.00;;;;;;;16.16;68.85;96631.41;1699528;84;21051;-85
2022/04/23 09:48:43;;;;;;;6.87;4.87;;;;;;;16.30;69.23;96627.70;1698983;84;21024;-85
2022/04/23 09:51:26;;;;;;;10.70;5.33;;;;;;;16.42;68.01;96629.06;1699651;84;21028;-85
2022/04/23 09:53:55;;;;;;;7.60;4.90;;;;;;;16.43;67.73;96628.95;1699790;84;21011;-85
2022/04/23 09:56:24;;;;;;;5.90;4.60;;;;;;;16.56;68.25;96628.05;1699254;84;21481;-85
2022/04/23 09:58:52;;;;;;;7.42;4.80;;;;;;;16.74;67.61;96625.78;1699426;84;21067;-85
2022/04/23 10:01:20;;;;;;;6.62;4.10;;;;;;;16.90;66.96;96626.76;1699557;84;21070;-83
2022/04/23 10:03:51;;;;;;;7.97;4.65;;;;;;;17.18;66.74;96617.95;1677425;84;21119;-86
2022/04/23 10:06:23;;;;;;;6.37;4.20;;;;;;;17.40;65.51;96613.59;1699382;84;21437;-85
2022/04/23 10:08:57;;;;;;;5.92;3.62;;;;;;;17.65;64.68;96618.31;1698914;84;21032;-85
2022/04/23 10:11:27;;;;;;;9.35;3.80;;;;;;;17.80;64.87;96617.54;1699545;84;21043;-84
2022/04/23 10:13:59;;;;;;;5.55;3.45;;;;;;;17.94;62.17;96615.92;1699029;84;21067;-85
2022/04/23 10:16:32;;;;;;;5.25;3.50;;;;;;;17.62;60.95;96618.55;1699290;84;21087;-85
2022/04/23 10:19:00;;;;;;;5.35;3.85;;;;;;;17.41;61.34;96624.16;1699157;84;21466;-85
2022/04/23 10:21:56;;;;;;;9.48;3.60;;;;;;;17.31;62.38;96621.02;1698948;84;21067;-85
2022/04/23 10:25:01;;;;;;;4.92;3.70;;;;;;;17.29;62.81;96623.80;1699415;84;21364;-85
2022/04/23 10:27:28;;;;;;;;;;;;;;;17.24;63.27;96624.66;1677321;84;21052;-85
2022/04/23 10:29:57;;;;;;;8.78;3.80;;;;;;;17.16;63.77;96619.91;1699705;84;20091;-85
2022/04/23 10:32:24;;;;;;;5.75;3.50;;;;;;;17.20;63.78;96619.17;1699393;84;21031;-85
2022/04/23 10:34:51;;;;;;;4.28;3.45;;;;;;;17.30;63.67;96617.47;1699299;84;21048;-86
2022/04/23 10:37:25;;;;;;;7.25;3.75;;;;;;;17.36;63.23;96622.33;1699700;84;21008;-86
2022/04/23 10:39:58;;;;;;;6.83;3.75;;;;;;;17.42;62.75;96621.00;1699145;84;21102;-85
2022/04/23 10:42:26;;;;;;;8.23;3.50;;;;;;;17.55;62.64;96627.56;1699841;84;21449;-85
2022/04/23 10:44:56;;;;;;;5.72;3.20;;;;;;;17.77;62.32;96625.84;1699688;84;21067;-85
2022/04/23 10:47:35;;;;;;;5.53;3.20;;;;;;;17.92;61.29;96619.23;1699445;84;21036;-85
2022/04/23 10:50:20;;;;;;;8.18;3.58;;;;;;;18.31;61.73;96622.78;1699250;84;21054;-85
2022/04/23 10:52:54;;;;;;;5.03;2.75;;;;;;;19.44;60.79;96619.58;1698983;84;21547;-86
2022/04/23 10:55:23;;;;;;;3.98;2.42;;;;;;;20.25;58.33;96619.16;1698768;84;21099;-86
2022/04/23 10:57:57;;;;;;;4.78;2.80;;;;;;;21.56;57.19;96607.05;1698685;84;21055;-86
2022/04/23 11:00:30;;;;;;;4.53;2.20;;;;;;;21.71;54.16;96597.11;1699187;84;21060;-85
2022/04/23 11:02:59;;;;;;;5.00;1.95;;;;;;;21.15;50.66;96604.64;1699027;84;21059;-85
2022/04/23 11:14:05;;;;;;;4.35;2.00;;;;;;;19.21;54.60;96621.09;1699026;84;21774;-85
2022/04/23 11:16:32;;;;;;;5.97;2.15;;;;;;;18.75;54.52;96616.48;1700000;84;21445;-86
2022/04/23 11:19:01;;;;;;;5.42;2.05;;;;;;;18.69;56.05;96617.84;1700153;84;21028;-86
2022/04/23 11:21:32;;;;;;;6.42;1.80;;;;;;;19.09;56.97;96616.77;1700679;84;21039;-86
2022/04/23 11:24:01;;;;;;;4.12;1.70;;;;;;;19.17;55.75;96606.23;1702316;83;21103;-85
2022/04/23 11:26:48;;;;;;;3.92;2.10;;;;;;;19.73;57.02;96614.77;1702229;83;21051;-86
2022/04/23 11:29:17;;;;;;;4.45;1.98;;;;;;;21.48;53.42;96613.18;1702199;84;21115;-86
2022/04/23 11:31:59;;;;;;;4.35;1.90;;;;;;;23.27;49.87;96604.09;1699350;84;21027;-87
2022/04/23 11:34:24;;;;;;;3.77;2.08;;;;;;;24.49;44.73;96606.22;1698401;84;21095;-86
2022/04/23 11:36:51;;;;;;;4.90;1.98;;;;;;;23.93;46.24;96600.86;1699119;84;21031;-85
2022/04/23 11:39:18;;;;;;;3.27;1.92;;;;;;;23.33;46.89;96594.02;1698702;84;21031;-86
2022/04/23 11:41:50;;;;;;;3.17;1.90;;;;;;;22.84;47.67;96596.38;1698453;84;21080;-86
2022/04/23 11:44:21;;;;;;;2.70;1.85;;;;;;;22.33;47.15;96601.00;1698615;84;21051;-86
2022/04/23 11:46:54;;;;;;;6.83;3.65;;;;;;;22.69;49.01;96594.23;1699517;84;21449;-86
2022/04/23 11:49:31;;;;;;;4.53;1.60;;;;;;;22.76;48.08;96598.52;1699269;84;21071;-86
2022/04/23 11:52:07;;;;;;;3.20;1.90;;;;;;;23.30;48.47;96590.23;1699811;84;21060;-86
2022/04/23 11:54:39;;;;;;;3.87;1.75;;;;;;;24.20;44.40;96596.20;1700004;84;21028;-86
2022/04/23 11:57:10;;;;;;;3.67;1.90;;;;;;;24.76;45.78;96593.37;1699977;84;21468;-84
2022/04/23 11:59:45;;;;;;;3.08;1.70;;;;;;;25.93;44.78;96588.03;1700004;84;21449;-83
2022/04/23 12:02:24;;;;;;;4.15;1.80;;;;;;;26.84;42.47;96588.43;1699731;84;21088;-84
2022/04/23 12:04:57;;;;;;;3.65;1.90;;;;;;;27.14;41.18;96585.80;1699634;84;21609;-84
2022/04/23 12:07:26;;;;;;;5.22;1.72;;;;;;;26.13;39.43;96597.08;1699886;84;21087;-83